Time;durP1;ratioP1;P1;durP2;ratioP2;P2;SDS_P1;SDS_P2;PMS_P1;PMS_P2;Temp;Humidity;BMP_temperature;BMP_pressure;BME280_temperature;BME280_humidity;BME280_pressure;Samples;Min_cycle;Max_cycle;Signal;HPM_P1;HPM_P2
2021/11/25 00:01:50;;;;;;;35.45;24.18;;;;;;;1.77;100.00;99021.09;2169537;82;21059;-83
2021/11/25 00:04:51;;;;;;;35.52;23.27;;;;;;;1.72;100.00;99025.30;2170090;82;21019;-84
2021/11/25 00:07:52;;;;;;;41.80;24.90;;;;;;;1.64;100.00;99031.50;2169289;82;21553;-84
2021/11/25 00:10:52;;;;;;;39.78;26.37;;;;;;;1.56;100.00;99021.78;2169311;82;21078;-83
2021/11/25 00:13:53;;;;;;;44.42;27.80;;;;;;;1.53;100.00;99021.17;2169569;82;20972;-83
2021/11/25 00:16:54;;;;;;;44.90;26.90;;;;;;;1.50;100.00;99025.28;2169739;82;21541;-85
2021/11/25 00:19:55;;;;;;;48.23;26.57;;;;;;;1.47;100.00;99027.63;2169733;82;21003;-85
2021/11/25 00:22:56;;;;;;;42.23;25.97;;;;;;;1.46;100.00;99017.40;2169852;82;21043;-83
2021/11/25 00:25:57;;;;;;;43.40;26.05;;;;;;;1.43;100.00;99021.86;2169745;82;21058;-83
2021/11/25 00:28:57;;;;;;;44.23;27.32;;;;;;;1.45;100.00;99017.05;2169472;82;20991;-86
2021/11/25 00:31:58;;;;;;;45.38;27.40;;;;;;;1.45;100.00;99010.59;2169508;82;21070;-83
2021/11/25 00:34:59;;;;;;;50.70;29.85;;;;;;;1.43;100.00;99011.53;2169604;82;21454;-84
2021/11/25 00:38:00;;;;;;;44.85;28.15;;;;;;;1.37;100.00;99008.58;2169280;82;20998;-84
2021/11/25 00:41:01;;;;;;;44.30;27.98;;;;;;;1.32;100.00;99002.95;2169476;82;21501;-83
2021/11/25 00:44:02;;;;;;;49.83;30.82;;;;;;;1.27;100.00;98994.72;2169361;82;20983;-83
2021/11/25 00:47:03;;;;;;;53.05;31.95;;;;;;;1.22;100.00;98991.68;2169492;82;21126;-83
2021/11/25 00:50:03;;;;;;;49.88;30.37;;;;;;;1.20;100.00;98993.09;2169462;82;21518;-83
2021/11/25 00:53:04;;;;;;;49.53;29.00;;;;;;;1.16;100.00;98990.36;2169515;82;21117;-82
2021/11/25 00:56:05;;;;;;;55.25;31.12;;;;;;;1.17;100.00;98988.60;2169496;82;21487;-83
2021/11/25 00:59:06;;;;;;;50.60;29.23;;;;;;;1.16;100.00;98980.52;2169557;82;20999;-82
2021/11/25 01:02:07;;;;;;;56.77;31.07;;;;;;;1.14;100.00;98979.34;2169611;82;20956;-82
2021/11/25 01:05:08;;;;;;;53.75;31.48;;;;;;;1.12;100.00;98983.33;2169435;82;20971;-84
2021/11/25 01:08:09;;;;;;;51.85;31.45;;;;;;;1.08;100.00;98976.73;2169308;82;21003;-84
2021/11/25 01:11:10;;;;;;;49.18;31.23;;;;;;;1.04;100.00;98974.05;2169568;82;21086;-82
2021/11/25 01:14:11;;;;;;;54.05;30.37;;;;;;;1.02;100.00;98969.94;2169246;82;20991;-82
2021/11/25 01:17:12;;;;;;;52.73;30.23;;;;;;;0.97;100.00;98960.42;2169479;82;21542;-83
2021/11/25 01:20:12;;;;;;;50.90;29.95;;;;;;;0.93;100.00;98957.26;2169577;82;21061;-82
2021/11/25 01:23:13;;;;;;;54.70;29.52;;;;;;;0.86;100.00;98950.90;2169759;82;20996;-81
2021/11/25 01:26:14;;;;;;;56.45;31.27;;;;;;;0.83;100.00;98948.09;2169508;82;21089;-82
2021/11/25 01:29:15;;;;;;;61.70;34.83;;;;;;;0.81;100.00;98943.95;2169574;82;21074;-85
2021/11/25 01:32:16;;;;;;;58.80;32.78;;;;;;;0.79;100.00;98942.78;2169295;82;21529;-84
2021/11/25 01:35:16;;;;;;;53.92;32.60;;;;;;;0.79;100.00;98935.05;2169671;82;21054;-82
2021/11/25 01:38:17;;;;;;;63.68;34.03;;;;;;;0.79;100.00;98933.77;2169437;82;21458;-83
2021/11/25 01:41:18;;;;;;;62.98;34.45;;;;;;;0.80;100.00;98923.80;2169264;82;21050;-83
2021/11/25 01:44:19;;;;;;;57.08;31.90;;;;;;;0.77;100.00;98915.02;2173579;82;21564;-83
2021/11/25 01:47:20;;;;;;;55.28;30.57;;;;;;;0.64;100.00;98906.98;2179368;82;21097;-83
2021/11/25 01:50:21;;;;;;;54.65;31.93;;;;;;;0.52;100.00;98903.09;2179464;82;21549;-82
2021/11/25 01:53:21;;;;;;;57.58;32.35;;;;;;;0.43;100.00;98887.02;2179332;82;20986;-83
2021/11/25 01:56:23;;;;;;;56.63;31.35;;;;;;;0.25;100.00;98890.45;2179509;82;21525;-84
2021/11/25 01:59:23;;;;;;;57.90;31.73;;;;;;;0.11;100.00;98888.05;2179336;82;21482;-83
2021/11/25 02:02:24;;;;;;;60.43;33.28;;;;;;;0.05;100.00;98884.62;2179359;82;21026;-82
2021/11/25 02:05:25;;;;;;;54.63;32.50;;;;;;;0.06;100.00;98883.68;2179376;82;21565;-84
2021/11/25 02:08:26;;;;;;;54.80;31.82;;;;;;;0.12;100.00;98881.15;2179257;82;21374;-83
2021/11/25 02:11:27;;;;;;;48.90;29.87;;;;;;;0.10;100.00;98876.11;2179307;82;21059;-83
2021/11/25 02:14:27;;;;;;;51.13;29.48;;;;;;;-0.01;100.00;98868.30;2179314;82;20999;-83
2021/11/25 02:17:28;;;;;;;63.40;33.88;;;;;;;-0.13;100.00;98862.75;2179256;82;21498;-84
2021/11/25 02:20:29;;;;;;;63.38;35.15;;;;;;;-0.20;100.00;98864.92;2179390;82;20963;-82
2021/11/25 02:23:30;;;;;;;68.00;38.23;;;;;;;-0.26;100.00;98860.70;2179453;82;21557;-83
2021/11/25 02:26:31;;;;;;;60.67;34.45;;;;;;;-0.30;100.00;98862.64;2179814;82;21014;-81
2021/11/25 02:29:32;;;;;;;59.15;34.90;;;;;;;-0.35;100.00;98856.55;2179605;82;21499;-82
2021/11/25 02:32:32;;;;;;;60.43;33.15;;;;;;;-0.36;100.00;98847.19;2179668;82;21022;-82
2021/11/25 02:35:33;;;;;;;57.50;33.73;;;;;;;-0.40;100.00;98830.77;2179344;82;20959;-84
2021/11/25 02:38:34;;;;;;;56.92;30.15;;;;;;;-0.44;100.00;98828.07;2179344;82;21666;-84
2021/11/25 02:41:35;;;;;;;59.83;31.82;;;;;;;-0.44;100.00;98828.07;2179240;82;21106;-83
2021/11/25 02:44:35;;;;;;;54.03;30.70;;;;;;;-0.38;100.00;98821.19;2174798;82;21582;-84
2021/11/25 02:47:36;;;;;;;53.70;31.55;;;;;;;-0.37;100.00;98815.11;2169273;82;21109;-83
2021/11/25 02:50:37;;;;;;;54.77;31.40;;;;;;;-0.37;100.00;98807.39;2169416;82;21035;-83
2021/11/25 02:53:38;;;;;;;55.15;32.93;;;;;;;-0.36;100.00;98808.59;2169409;82;21030;-82
2021/11/25 02:56:39;;;;;;;55.12;32.33;;;;;;;-0.30;100.00;98798.31;2169370;82;21051;-83
2021/11/25 02:59:40;;;;;;;56.55;33.42;;;;;;;-0.29;100.00;98796.91;2169368;82;20971;-83
2021/11/25 03:02:40;;;;;;;63.30;33.28;;;;;;;-0.34;100.00;98799.01;2169453;82;21058;-82
2021/11/25 03:05:41;;;;;;;52.03;31.82;;;;;;;-0.37;100.00;98791.95;2169452;82;20995;-83
2021/11/25 03:08:42;;;;;;;54.30;32.48;;;;;;;-0.37;100.00;98791.95;2169713;82;21027;-84
2021/11/25 03:11:43;;;;;;;52.65;30.35;;;;;;;-0.39;100.00;98798.97;2169589;82;20987;-82
2021/11/25 03:14:44;;;;;;;57.55;33.48;;;;;;;-0.41;100.00;98791.36;2169494;82;21067;-83
2021/11/25 03:17:44;;;;;;;56.75;32.08;;;;;;;-0.41;100.00;98787.97;2169339;82;20999;-82
2021/11/25 03:20:45;;;;;;;61.20;33.83;;;;;;;-0.42;100.00;98788.44;2169685;82;20974;-82
2021/11/25 03:23:46;;;;;;;63.48;36.00;;;;;;;-0.41;100.00;98778.96;2169452;82;20995;-83
2021/11/25 03:26:48;;;;;;;57.85;30.30;;;;;;;-0.43;100.00;98773.11;2169477;82;21020;-82
2021/11/25 03:29:49;;;;;;;59.75;35.40;;;;;;;-0.45;100.00;98778.38;2169835;82;21026;-82
2021/11/25 03:32:50;;;;;;;62.15;34.78;;;;;;;-0.46;100.00;98784.88;2169633;82;21017;-82
2021/11/25 03:35:50;;;;;;;57.00;32.67;;;;;;;-0.50;100.00;98769.33;2169509;82;21015;-83
2021/11/25 03:38:51;;;;;;;52.58;32.20;;;;;;;-0.53;100.00;98768.27;2169537;82;21038;-84
2021/11/25 03:41:52;;;;;;;59.05;33.65;;;;;;;-0.59;100.00;98763.08;2169572;82;21066;-83
2021/11/25 03:44:53;;;;;;;62.67;37.30;;;;;;;-0.63;100.00;98753.48;2173784;82;20972;-82
2021/11/25 03:47:54;;;;;;;63.50;35.50;;;;;;;-0.64;100.00;98753.13;2179440;82;21605;-83
2021/11/25 03:50:55;;;;;;;56.45;32.60;;;;;;;-0.65;100.00;98751.45;2179666;82;20956;-82
2021/11/25 03:53:56;;;;;;;60.05;35.98;;;;;;;-0.69;100.00;98748.76;2180157;82;20983;-82
2021/11/25 03:56:57;;;;;;;64.30;35.48;;;;;;;-0.73;100.00;98742.20;2180275;82;21085;-84
2021/11/25 03:59:58;;;;;;;59.75;33.78;;;;;;;-0.78;100.00;98735.73;2180648;82;21495;-81
2021/11/25 04:02:59;;;;;;;65.08;37.63;;;;;;;-0.87;100.00;98731.58;2179436;82;21094;-83
2021/11/25 04:05:59;;;;;;;66.77;37.08;;;;;;;-0.91;100.00;98730.17;2179375;82;20982;-84
2021/11/25 04:09:00;;;;;;;66.97;38.63;;;;;;;-0.96;100.00;98719.38;2179165;82;21062;-84
2021/11/25 04:12:01;;;;;;;64.15;36.35;;;;;;;-0.98;100.00;98707.56;2179881;82;20944;-83
2021/11/25 04:15:03;;;;;;;65.17;36.60;;;;;;;-1.01;100.00;98706.00;2179497;82;21014;-86
2021/11/25 04:18:04;;;;;;;78.62;42.15;;;;;;;-1.04;100.00;98698.98;2179394;82;21070;-85
2021/11/25 04:21:05;;;;;;;68.60;34.98;;;;;;;-1.06;100.00;98696.98;2179734;82;20998;-86
2021/11/25 04:24:06;;;;;;;64.35;33.60;;;;;;;-1.09;100.00;98688.22;2180030;82;21011;-84
2021/11/25 04:27:06;;;;;;;62.40;32.73;;;;;;;-1.10;100.00;98696.83;2180657;82;21101;-85
2021/11/25 04:36:35;;;;;;;70.25;36.58;;;;;;;-1.13;100.00;98683.73;2141821;83;21093;-84
2021/11/25 04:39:36;;;;;;;71.25;40.98;;;;;;;-1.13;100.00;98674.73;2140893;83;22369;-85
2021/11/25 04:42:37;;;;;;;77.80;40.83;;;;;;;-1.15;100.00;98665.04;2141521;83;21016;-84
2021/11/25 04:45:38;;;;;;;71.12;37.67;;;;;;;-1.13;100.00;98663.64;2120745;83;21012;-86
2021/11/25 04:48:39;;;;;;;79.22;40.78;;;;;;;-1.15;100.00;98659.44;2107642;82;21563;-87
2021/11/25 04:51:39;;;;;;;72.80;41.45;;;;;;;-1.15;100.00;98658.15;2107680;84;20976;-86
2021/11/25 04:54:40;;;;;;;73.65;40.03;;;;;;;-1.16;100.00;98646.70;2107770;84;21567;-85
2021/11/25 04:57:41;;;;;;;67.82;36.30;;;;;;;-1.21;100.00;98648.76;2107951;84;21040;-83
2021/11/25 05:00:42;;;;;;;69.60;38.95;;;;;;;-1.24;100.00;98636.13;2107613;84;21039;-85
2021/11/25 05:03:43;;;;;;;65.72;37.28;;;;;;;-1.25;100.00;98624.22;2107479;84;20984;-86
2021/11/25 05:06:43;;;;;;;66.00;36.68;;;;;;;-1.25;100.00;98622.94;2107405;84;21016;-87
2021/11/25 05:09:44;;;;;;;76.82;40.98;;;;;;;-1.27;100.00;98615.80;2110009;84;21078;-86
2021/11/25 05:12:45;;;;;;;74.37;41.80;;;;;;;-1.28;100.00;98611.13;2114029;83;20962;-86
2021/11/25 05:15:46;;;;;;;69.87;39.27;;;;;;;-1.29;100.00;98609.47;2114081;83;21113;-86
2021/11/25 05:18:47;;;;;;;74.60;38.60;;;;;;;-1.29;100.00;98603.50;2114046;83;21071;-86
2021/11/25 05:21:48;;;;;;;76.75;36.73;;;;;;;-1.31;100.00;98606.66;2114775;83;20963;-86
2021/11/25 05:24:48;;;;;;;88.05;41.08;;;;;;;-1.34;100.00;98599.99;2113922;83;21070;-84
2021/11/25 05:27:49;;;;;;;71.80;41.77;;;;;;;-1.33;100.00;98593.92;2113984;83;21475;-83
2021/11/25 05:30:50;;;;;;;72.87;39.30;;;;;;;-1.32;100.00;98593.45;2115758;83;21054;-86
2021/11/25 05:33:51;;;;;;;87.65;44.27;;;;;;;-1.32;100.00;98594.27;2113824;83;21062;-85
2021/11/25 05:36:51;;;;;;;84.75;43.33;;;;;;;-1.32;100.00;98591.70;2114366;83;21491;-86
2021/11/25 05:39:52;;;;;;;78.75;43.85;;;;;;;-1.30;100.00;98593.70;2114609;83;21054;-84
2021/11/25 05:42:53;;;;;;;70.83;40.10;;;;;;;-1.31;100.00;98584.82;2114186;83;21062;-87
2021/11/25 05:45:54;;;;;;;79.07;42.73;;;;;;;-1.34;100.00;98579.91;2155590;82;21574;-83
2021/11/25 05:48:55;;;;;;;73.28;36.53;;;;;;;-1.36;100.00;98584.34;2179921;82;21019;-88
2021/11/25 05:51:56;;;;;;;79.77;39.58;;;;;;;-1.39;100.00;98576.36;2179751;82;21029;-84
2021/11/25 05:54:57;;;;;;;72.42;39.27;;;;;;;-1.42;100.00;98570.16;2180400;82;21031;-86
2021/11/25 05:57:58;;;;;;;75.65;41.18;;;;;;;-1.42;100.00;98566.78;2179647;82;20959;-88
2021/11/25 06:00:58;;;;;;;75.00;40.67;;;;;;;-1.43;100.00;98563.39;2179474;82;20982;-85
2021/11/25 06:03:59;;;;;;;78.95;41.23;;;;;;;-1.44;100.00;98560.47;2180218;82;20979;-87
2021/11/25 06:07:00;;;;;;;71.67;37.93;;;;;;;-1.45;100.00;98557.55;2179929;82;21045;-84
2021/11/25 06:10:01;;;;;;;80.53;42.88;;;;;;;-1.47;100.00;98560.66;2179731;82;20940;-88
2021/11/25 06:13:02;;;;;;;74.87;41.00;;;;;;;-1.46;100.00;98568.29;2179604;82;21030;-84
2021/11/25 06:16:03;;;;;;;71.17;38.53;;;;;;;-1.44;100.00;98563.86;2179976;82;20979;-86
2021/11/25 06:19:05;;;;;;;76.67;42.62;;;;;;;-1.48;100.00;98566.27;2179831;82;21039;-88
2021/11/25 06:22:05;;;;;;;76.05;40.88;;;;;;;-1.48;100.00;98561.59;2180044;82;20971;-85
2021/11/25 06:25:06;;;;;;;81.87;42.48;;;;;;;-1.48;100.00;98559.84;2180682;82;21037;-84
2021/11/25 06:28:07;;;;;;;77.87;41.70;;;;;;;-1.48;100.00;98553.89;2180141;82;20983;-78
2021/11/25 06:31:08;;;;;;;75.12;42.53;;;;;;;-1.47;100.00;98551.67;2179927;82;21014;-85
2021/11/25 06:34:10;;;;;;;79.40;39.53;;;;;;;-1.42;100.00;98545.77;2179315;82;21061;-86
2021/11/25 06:37:11;;;;;;;68.70;38.98;;;;;;;-1.38;100.00;98541.22;2179230;82;21062;-83
2021/11/25 06:40:12;;;;;;;67.35;36.23;;;;;;;-1.35;100.00;98547.45;2179651;82;20956;-81
2021/11/25 06:43:12;;;;;;;68.12;38.58;;;;;;;-1.33;100.00;98553.29;2179989;82;21010;-82
2021/11/25 06:46:13;;;;;;;69.42;39.75;;;;;;;-1.32;100.00;98545.47;2179552;82;21051;-83
2021/11/25 06:49:14;;;;;;;75.22;40.17;;;;;;;-1.28;100.00;98544.34;2179225;82;21585;-82
2021/11/25 06:52:15;;;;;;;73.62;39.10;;;;;;;-1.22;100.00;98538.74;2179468;82;20971;-83
2021/11/25 06:55:16;;;;;;;74.72;38.48;;;;;;;-1.12;100.00;98529.91;2179380;82;21292;-82
2021/11/25 06:58:17;;;;;;;79.30;41.73;;;;;;;-1.12;100.00;98529.91;2179428;82;21002;-83
2021/11/25 07:01:18;;;;;;;86.70;42.88;;;;;;;-1.05;100.00;98530.30;2179430;82;20961;-82
2021/11/25 07:04:18;;;;;;;74.77;41.60;;;;;;;-1.00;100.00;98526.47;2179474;82;21010;-81
2021/11/25 07:07:19;;;;;;;67.15;37.48;;;;;;;-0.96;100.00;98534.30;2179212;82;21034;-81
2021/11/25 07:10:20;;;;;;;74.82;41.05;;;;;;;-0.89;100.00;98529.08;2179255;82;21527;-80
2021/11/25 07:13:21;;;;;;;73.02;40.28;;;;;;;-0.84;100.00;98528.72;2179306;82;21027;-80
2021/11/25 07:16:22;;;;;;;68.45;37.38;;;;;;;-0.76;100.00;98531.55;2179356;82;20955;-81
2021/11/25 07:19:23;;;;;;;72.20;38.80;;;;;;;-0.69;100.00;98525.03;2179265;82;21030;-80
2021/11/25 07:22:26;;;;;;;68.50;39.98;;;;;;;-0.65;100.00;98521.29;2179324;82;21002;-81
2021/11/25 07:25:26;;;;;;;73.80;39.70;;;;;;;-0.59;100.00;98518.74;2179307;82;21034;-80
2021/11/25 07:28:27;;;;;;;61.75;35.30;;;;;;;-0.50;100.00;98517.23;2179391;82;21478;-80
2021/11/25 07:31:29;;;;;;;66.05;38.10;;;;;;;-0.48;100.00;98520.04;2179277;82;21007;-80
2021/11/25 07:34:31;;;;;;;67.75;37.13;;;;;;;-0.43;100.00;98518.42;2179242;82;20952;-81
2021/11/25 07:37:32;;;;;;;66.80;37.08;;;;;;;-0.38;100.00;98517.59;2179284;82;21574;-80
2021/11/25 07:40:33;;;;;;;60.17;31.80;;;;;;;-0.31;100.00;98517.02;2179527;82;21006;-81
2021/11/25 07:43:33;;;;;;;61.73;34.95;;;;;;;-0.27;100.00;98511.20;2180071;82;20939;-80
2021/11/25 07:46:34;;;;;;;71.95;39.98;;;;;;;-0.24;100.00;98496.80;2179495;82;21057;-82
2021/11/25 07:49:37;;;;;;;71.67;40.05;;;;;;;-0.16;100.00;98501.38;2179231;82;21006;-83
2021/11/25 07:52:38;;;;;;;67.72;35.73;;;;;;;-0.08;100.00;98502.89;2179479;82;21086;-82
2021/11/25 07:55:39;;;;;;;63.70;35.73;;;;;;;-0.01;100.00;98500.99;2179536;82;21034;-82
2021/11/25 07:58:40;;;;;;;67.92;38.00;;;;;;;0.08;100.00;98498.65;2184004;80;20976;-81
2021/11/25 08:01:41;;;;;;;67.15;35.45;;;;;;;0.14;100.00;98495.61;2216010;80;20976;-81
2021/11/25 08:04:43;;;;;;;66.30;36.23;;;;;;;0.17;100.00;98487.16;2216416;80;21095;-83
2021/11/25 08:07:43;;;;;;;66.70;36.30;;;;;;;0.24;100.00;98484.94;2216534;80;20985;-82
2021/11/25 08:10:44;;;;;;;66.80;37.93;;;;;;;0.24;100.00;98484.47;2216308;80;21035;-81
2021/11/25 08:13:45;;;;;;;64.50;36.88;;;;;;;0.27;100.00;98474.39;2216380;80;20989;-82
2021/11/25 08:16:46;;;;;;;58.28;34.92;;;;;;;0.26;100.00;98472.28;2215990;80;21242;-83
2021/11/25 08:19:47;;;;;;;72.30;39.20;;;;;;;0.30;100.00;98471.59;2216168;80;21009;-82
2021/11/25 08:22:48;;;;;;;66.82;37.08;;;;;;;0.34;100.00;98478.59;2216529;80;20961;-82
2021/11/25 08:25:49;;;;;;;74.37;40.75;;;;;;;0.41;100.00;98477.18;2216147;80;21021;-81
2021/11/25 08:28:51;;;;;;;65.40;38.28;;;;;;;0.51;100.00;98474.22;2216306;80;21051;-81
2021/11/25 08:31:51;;;;;;;63.17;38.08;;;;;;;0.62;100.00;98477.22;2216437;80;21445;-82
2021/11/25 08:34:54;;;;;;;64.05;37.17;;;;;;;0.72;100.00;98473.78;2216618;80;21024;-81
2021/11/25 08:37:55;;;;;;;67.60;39.13;;;;;;;0.79;100.00;98477.52;2216303;80;21065;-82
2021/11/25 08:40:55;;;;;;;70.52;38.28;;;;;;;0.87;100.00;98479.48;2216490;80;20985;-82
2021/11/25 08:43:56;;;;;;;66.85;37.65;;;;;;;0.96;100.00;98477.91;2216832;80;20969;-82
2021/11/25 08:46:57;;;;;;;65.45;36.83;;;;;;;1.03;100.00;98477.30;2221953;80;21025;-82
2021/11/25 08:49:58;;;;;;;64.45;38.40;;;;;;;1.10;100.00;98469.89;2223882;80;21032;-83
2021/11/25 08:52:59;;;;;;;65.20;37.83;;;;;;;1.16;100.00;98471.94;2223730;80;21084;-83
2021/11/25 08:56:00;;;;;;;62.23;37.80;;;;;;;1.22;100.00;98467.58;2223754;80;20969;-82
2021/11/25 08:59:00;;;;;;;66.87;36.60;;;;;;;1.29;100.00;98467.42;2223729;80;21020;-82
2021/11/25 09:02:01;;;;;;;60.25;36.03;;;;;;;1.39;100.00;98473.93;2223532;80;20992;-83
2021/11/25 09:05:02;;;;;;;60.83;35.05;;;;;;;1.49;100.00;98468.81;2223744;80;20997;-81
2021/11/25 09:08:03;;;;;;;58.45;35.08;;;;;;;1.54;100.00;98455.86;2223587;80;21037;-82
2021/11/25 09:11:04;;;;;;;66.67;35.43;;;;;;;1.54;100.00;98449.41;2223623;80;21309;-82
2021/11/25 09:14:05;;;;;;;59.05;33.53;;;;;;;1.53;100.00;98435.34;2223540;80;20953;-83
2021/11/25 09:17:06;;;;;;;62.80;34.88;;;;;;;1.51;100.00;98441.12;2223645;80;21016;-83
2021/11/25 09:20:07;;;;;;;62.40;35.13;;;;;;;1.54;100.00;98438.27;2223581;80;21008;-82
2021/11/25 09:23:07;;;;;;;59.42;34.53;;;;;;;1.60;100.00;98436.47;2223703;80;20930;-83
2021/11/25 09:26:08;;;;;;;59.18;33.40;;;;;;;1.64;100.00;98428.80;2223365;80;21059;-82
2021/11/25 09:29:09;;;;;;;58.10;35.88;;;;;;;1.71;100.00;98429.92;2223524;80;20992;-83
2021/11/25 09:32:11;;;;;;;60.05;34.80;;;;;;;1.79;100.00;98421.05;2224262;80;21171;-81
2021/11/25 09:35:12;;;;;;;64.53;36.38;;;;;;;1.86;100.00;98414.89;2225197;80;20981;-82
2021/11/25 09:38:13;;;;;;;69.17;37.93;;;;;;;1.90;100.00;98407.22;2223563;80;20993;-82
2021/11/25 09:41:14;;;;;;;63.48;37.25;;;;;;;1.92;100.00;98407.45;2223781;80;21433;-83
2021/11/25 09:44:15;;;;;;;60.30;34.25;;;;;;;1.94;100.00;98410.70;2223864;80;21376;-82
2021/11/25 09:47:16;;;;;;;61.63;35.83;;;;;;;1.95;100.00;98397.32;2224104;80;21039;-81
2021/11/25 09:50:17;;;;;;;61.15;36.45;;;;;;;1.97;100.00;98396.70;2224170;80;21021;-82
2021/11/25 09:53:18;;;;;;;60.65;35.20;;;;;;;1.99;100.00;98397.38;2223704;80;21016;-81
2021/11/25 09:56:19;;;;;;;62.67;36.35;;;;;;;2.02;100.00;98384.23;2223668;80;20966;-83
2021/11/25 09:59:20;;;;;;;62.48;36.83;;;;;;;2.07;100.00;98382.05;2223538;80;20954;-84
2021/11/25 10:02:21;;;;;;;61.50;36.17;;;;;;;2.12;100.00;98381.66;2223509;80;21008;-82
2021/11/25 10:05:22;;;;;;;60.28;35.48;;;;;;;2.19;100.00;98378.37;2223515;80;21057;-84
2021/11/25 10:08:22;;;;;;;60.25;34.75;;;;;;;2.24;100.00;98371.53;2223532;80;21040;-82
2021/11/25 10:11:23;;;;;;;56.13;32.75;;;;;;;2.27;100.00;98366.08;2223803;80;20929;-82
2021/11/25 10:14:24;;;;;;;61.15;36.40;;;;;;;2.29;100.00;98360.33;2223626;80;21031;-83
2021/11/25 10:17:25;;;;;;;55.20;32.90;;;;;;;2.34;100.00;98345.22;2223785;80;20946;-82
2021/11/25 10:20:26;;;;;;;57.05;34.00;;;;;;;2.40;100.00;98342.58;2223728;80;21031;-81
2021/11/25 10:23:29;;;;;;;56.25;35.00;;;;;;;2.43;100.00;98344.88;2223602;80;21001;-84
2021/11/25 10:26:30;;;;;;;58.80;34.78;;;;;;;2.49;100.00;98330.13;2223605;80;21049;-85
2021/11/25 10:29:30;;;;;;;55.20;32.78;;;;;;;2.53;100.00;98322.42;2223696;80;21518;-84
2021/11/25 10:32:31;;;;;;;51.28;31.10;;;;;;;2.60;100.00;98313.16;2223807;80;20996;-83
2021/11/25 10:35:34;;;;;;;49.95;32.53;;;;;;;2.70;100.00;98307.97;2224009;80;21070;-83
2021/11/25 10:41:54;;;;;;;51.73;32.35;;;;;;;2.81;100.00;98301.34;2224251;80;21036;-84
2021/11/25 10:44:55;;;;;;;53.58;33.75;;;;;;;2.86;100.00;98288.81;2224416;80;20950;-83
2021/11/25 10:47:56;;;;;;;58.92;32.88;;;;;;;2.94;100.00;98285.53;2219324;80;21045;-79
2021/11/25 10:50:57;;;;;;;55.12;33.05;;;;;;;2.96;100.00;98288.78;2217576;80;20942;-84
2021/11/25 10:53:58;;;;;;;55.33;33.48;;;;;;;3.00;100.00;98283.65;2217552;80;20965;-87
2021/11/25 10:57:02;;;;;;;53.83;33.18;;;;;;;3.05;100.00;98279.69;2217159;80;21072;-84
2021/11/25 11:00:01;;;;;;;51.63;31.05;;;;;;;3.10;100.00;98277.47;2216732;80;21480;-86
2021/11/25 11:03:03;;;;;;;51.00;30.92;;;;;;;3.19;100.00;98281.45;2216606;80;21004;-86
2021/11/25 11:06:04;;;;;;;52.78;32.15;;;;;;;3.26;100.00;98269.11;2216919;80;21064;-87
2021/11/25 11:09:05;;;;;;;56.65;36.60;;;;;;;3.32;100.00;98262.55;2216505;80;21516;-85
2021/11/25 11:12:05;;;;;;;53.78;32.42;;;;;;;3.37;100.00;98259.84;2216438;80;20993;-85
2021/11/25 11:15:25;;;;;;;54.63;31.17;;;;;;;3.42;100.00;98249.07;2216594;80;21002;-84
2021/11/25 11:21:16;;;;;;;52.78;32.13;;;;;;;3.48;100.00;98234.27;2216588;80;20997;-86
2021/11/25 11:24:16;;;;;;;53.90;32.75;;;;;;;3.52;100.00;98223.13;2216591;80;20993;-84
2021/11/25 11:27:18;;;;;;;49.60;31.17;;;;;;;3.56;100.00;98218.78;2216274;80;21030;-85
2021/11/25 11:30:19;;;;;;;59.42;33.65;;;;;;;3.62;100.00;98216.91;2216406;80;21127;-85
2021/11/25 11:33:19;;;;;;;54.95;33.48;;;;;;;3.68;100.00;98212.45;2216443;80;21020;-83
2021/11/25 11:36:21;;;;;;;54.18;32.80;;;;;;;3.75;100.00;98197.14;2216701;80;21009;-84
2021/11/25 11:39:21;;;;;;;52.15;33.75;;;;;;;3.80;100.00;98191.50;2216552;80;20993;-85
2021/11/25 11:42:24;;;;;;;52.30;33.45;;;;;;;3.81;100.00;98184.06;2216828;80;21001;-84
2021/11/25 11:45:25;;;;;;;48.70;29.63;;;;;;;3.83;100.00;98183.42;2216711;80;21055;-83
2021/11/25 11:48:26;;;;;;;48.48;31.97;;;;;;;3.85;100.00;98171.16;2227809;80;21001;-84
2021/11/25 11:51:27;;;;;;;52.38;33.55;;;;;;;3.84;100.00;98169.50;2229286;80;21524;-81
2021/11/25 11:54:28;;;;;;;50.80;30.77;;;;;;;3.84;100.00;98160.44;2229681;80;20949;-81
2021/11/25 11:57:30;;;;;;;49.70;30.97;;;;;;;3.78;100.00;98152.81;2229461;80;20973;-78
2021/11/25 12:00:31;;;;;;;49.03;30.88;;;;;;;3.73;100.00;98145.95;2228005;80;21073;-79
2021/11/25 12:03:32;;;;;;;49.45;31.70;;;;;;;3.74;100.00;98143.70;2227902;80;20926;-83
2021/11/25 12:06:32;;;;;;;49.23;30.57;;;;;;;3.79;100.00;98139.38;2228756;80;21020;-80
2021/11/25 12:09:36;;;;;;;54.33;32.85;;;;;;;3.86;100.00;98137.82;2227780;80;20974;-86
2021/11/25 12:12:38;;;;;;;49.45;31.25;;;;;;;3.91;100.00;98145.45;2227811;80;21016;-83
2021/11/25 12:15:38;;;;;;;50.90;30.10;;;;;;;3.94;100.00;98145.16;2227591;80;21055;-84
2021/11/25 12:18:39;;;;;;;50.52;31.42;;;;;;;3.96;100.00;98139.83;2228234;80;20961;-85
2021/11/25 12:21:40;;;;;;;52.90;30.12;;;;;;;3.99;100.00;98131.26;2227941;80;21040;-86
2021/11/25 12:24:41;;;;;;;51.95;30.08;;;;;;;3.98;100.00;98123.64;2227339;80;21005;-84
2021/11/25 12:27:42;;;;;;;49.45;30.20;;;;;;;3.98;100.00;98135.30;2227294;80;21117;-85
2021/11/25 12:30:51;;;;;;;53.63;30.92;;;;;;;3.97;100.00;98129.31;2227062;80;21497;-84
2021/11/25 12:33:45;;;;;;;51.88;31.87;;;;;;;3.98;100.00;98124.45;2225629;80;20998;-85
2021/11/25 12:36:49;;;;;;;44.20;28.62;;;;;;;3.97;100.00;98125.91;2226891;80;21111;-83
2021/11/25 12:39:50;;;;;;;53.23;31.23;;;;;;;3.95;100.00;98111.82;2228334;80;20993;-79
2021/11/25 12:42:51;;;;;;;52.60;32.35;;;;;;;3.93;100.00;98103.39;2227816;80;21026;-85
2021/11/25 12:45:52;;;;;;;53.15;33.33;;;;;;;3.93;100.00;98099.96;2227592;80;21306;-84
2021/11/25 12:48:55;;;;;;;45.98;29.60;;;;;;;3.93;100.00;98105.14;2223756;80;21120;-82
2021/11/25 12:51:55;;;;;;;54.60;32.63;;;;;;;3.91;100.00;98091.05;2223836;80;21024;-85
2021/11/25 12:54:56;;;;;;;61.05;33.73;;;;;;;3.85;100.00;98089.09;2223789;80;20993;-84
2021/11/25 12:57:58;;;;;;;59.20;34.73;;;;;;;3.83;100.00;98081.94;2224289;80;20962;-82
2021/11/25 13:00:59;;;;;;;55.78;33.50;;;;;;;3.79;100.00;98084.51;2224246;80;20984;-82
2021/11/25 13:03:59;;;;;;;57.27;33.75;;;;;;;3.78;100.00;98086.77;2224316;80;21004;-81
2021/11/25 13:07:03;;;;;;;53.33;32.25;;;;;;;3.82;100.00;98084.68;2224806;80;20993;-80
2021/11/25 13:10:03;;;;;;;57.10;34.50;;;;;;;3.83;100.00;98081.94;2224256;80;21035;-85
2021/11/25 13:13:04;;;;;;;56.02;34.20;;;;;;;3.90;100.00;98071.30;2224016;80;22072;-85
2021/11/25 13:16:05;;;;;;;47.38;27.48;;;;;;;3.96;100.00;98075.07;2225196;80;21001;-80
2021/11/25 13:19:06;;;;;;;48.02;29.63;;;;;;;3.98;100.00;98062.28;2224329;80;20997;-85
2021/11/25 13:22:06;;;;;;;52.70;31.42;;;;;;;3.99;100.00;98053.55;2223983;80;21060;-84
2021/11/25 13:25:07;;;;;;;53.13;32.88;;;;;;;4.00;100.00;98057.75;2223566;80;20969;-85
2021/11/25 13:28:08;;;;;;;48.87;29.90;;;;;;;4.05;100.00;98053.42;2224020;80;21024;-84
2021/11/25 13:31:09;;;;;;;51.00;33.23;;;;;;;4.07;100.00;98050.19;2223666;80;20926;-84
2021/11/25 13:34:10;;;;;;;53.00;32.20;;;;;;;4.08;100.00;98039.34;2223419;80;20981;-84
2021/11/25 13:37:11;;;;;;;46.30;28.80;;;;;;;4.11;100.00;98032.06;2223737;80;21060;-84
2021/11/25 13:40:15;;;;;;;52.60;30.15;;;;;;;4.15;100.00;98023.52;2223919;80;21001;-83
2021/11/25 13:43:21;;;;;;;49.00;27.70;;;;;;;4.16;100.00;98008.29;2223819;80;20973;-85
2021/11/25 13:46:22;;;;;;;47.90;27.22;;;;;;;4.16;100.00;98006.99;2223849;80;20987;-78
2021/11/25 13:49:29;;;;;;;43.33;27.87;;;;;;;4.15;100.00;98001.00;2229994;80;21012;-79
2021/11/25 13:52:25;;;;;;;57.50;34.00;;;;;;;4.11;100.00;98002.75;2228965;80;21310;-78
2021/11/25 13:55:27;;;;;;;58.08;35.58;;;;;;;4.10;100.00;97998.54;2228856;80;21096;-82
2021/11/25 13:58:27;;;;;;;54.13;31.12;;;;;;;4.12;100.00;98005.70;2229021;80;21004;-79
2021/11/25 14:01:32;;;;;;;56.42;33.40;;;;;;;4.09;100.00;98002.09;2229022;80;21012;-82